Time,TemperatureF,DewpointF,PressureIn,WindDirection,WindDirectionDegrees,WindSpeedMPH,WindSpeedGustMPH,Humidity,HourlyPrecipIn,Conditions,Clouds,dailyrainin,SoftwareType,DateUTC
2013-02-27 00:02:00,32.0,28.0,29.65,NE,46,0.0,0.0,85,0.00,,,0.32,,2013-02-27 06:02:00,
2013-02-27 00:11:00,32.0,28.0,29.65,NE,46,0.0,0.0,85,0.00,,,0.32,,2013-02-27 06:11:00,
2013-02-27 00:21:00,32.0,28.0,29.66,NE,46,0.0,0.0,85,0.00,,,0.32,,2013-02-27 06:21:00,
2013-02-27 00:32:00,32.0,28.0,29.66,NE,46,0.0,0.0,85,0.00,,,0.32,,2013-02-27 06:32:00,
2013-02-27 00:41:00,32.0,28.0,29.66,NE,46,0.0,0.0,85,0.00,,,0.32,,2013-02-27 06:41:00,
2013-02-27 00:52:00,32.0,28.0,29.66,NE,46,0.0,0.0,85,0.00,,,0.32,,2013-02-27 06:52:00,
2013-02-27 01:01:00,32.0,28.0,29.66,NE,46,0.0,0.0,85,0.00,,,0.32,,2013-02-27 07:01:00,
2013-02-27 01:12:00,32.0,28.0,29.66,NE,46,0.0,0.0,85,0.00,,,0.32,,2013-02-27 07:12:00,
2013-02-27 01:21:00,32.0,28.0,29.67,NE,46,0.0,0.0,85,0.00,,,0.32,,2013-02-27 07:21:00,
2013-02-27 01:31:00,32.0,28.0,29.67,NE,46,0.0,0.0,85,0.00,,,0.32,,2013-02-27 07:31:00,
2013-02-27 01:41:00,32.0,28.0,29.67,NE,46,0.0,0.0,85,0.00,,,0.32,,2013-02-27 07:41:00,
2013-02-27 01:52:00,32.0,28.0,29.67,NE,46,0.0,0.0,85,0.00,,,0.32,,2013-02-27 07:52:00,
2013-02-27 02:01:00,32.0,28.0,29.67,NE,46,0.0,0.0,85,0.00,,,0.32,,2013-02-27 08:01:00,
2013-02-27 02:11:00,32.0,28.0,29.67,NE,46,0.0,0.0,85,0.00,,,0.32,,2013-02-27 08:11:00,
2013-02-27 02:21:00,32.0,28.0,29.67,NE,46,0.0,0.0,85,0.00,,,0.32,,2013-02-27 08:21:00,
2013-02-27 02:31:00,32.0,28.0,29.66,NE,46,0.0,0.0,85,0.00,,,0.32,,2013-02-27 08:31:00,
2013-02-27 02:41:00,32.0,28.0,29.66,NE,46,0.0,0.0,85,0.00,,,0.32,,2013-02-27 08:41:00,
2013-02-27 02:53:00,32.0,28.0,29.66,NE,46,0.0,0.0,85,0.00,,,0.32,,2013-02-27 08:53:00,
2013-02-27 03:01:00,32.0,28.0,29.66,NE,46,0.0,0.0,85,0.00,,,0.32,,2013-02-27 09:01:00,
2013-02-27 03:11:00,32.0,28.0,29.66,NE,46,0.0,0.0,85,0.00,,,0.32,,2013-02-27 09:11:00,
2013-02-27 03:21:00,32.0,28.0,29.66,NE,46,0.0,0.0,85,0.00,,,0.32,,2013-02-27 09:21:00,
2013-02-27 03:32:00,32.0,28.0,29.66,NE,46,0.0,0.0,85,0.00,,,0.32,,2013-02-27 09:32:00,
2013-02-27 03:41:00,32.0,28.0,29.66,NE,46,0.0,0.0,85,0.00,,,0.32,,2013-02-27 09:41:00,
2013-02-27 03:52:00,32.0,28.0,29.66,NE,46,0.0,0.0,85,0.00,,,0.32,,2013-02-27 09:52:00,
2013-02-27 04:01:00,32.0,28.0,29.66,NE,46,0.0,0.0,85,0.00,,,0.32,,2013-02-27 10:01:00,
2013-02-27 04:12:00,32.0,28.0,29.66,NE,46,0.0,0.0,85,0.00,,,0.32,,2013-02-27 10:12:00,
2013-02-27 04:21:00,32.0,28.0,29.66,NE,46,0.0,0.0,85,0.00,,,0.32,,2013-02-27 10:21:00,
2013-02-27 04:32:00,32.0,28.0,29.66,NE,46,0.0,0.0,85,0.00,,,0.32,,2013-02-27 10:32:00,
2013-02-27 04:42:00,32.0,28.0,29.66,NE,46,0.0,0.0,85,0.00,,,0.32,,2013-02-27 10:42:00,
2013-02-27 04:53:00,32.0,28.0,29.67,NE,46,0.0,0.0,85,0.00,,,0.32,,2013-02-27 10:53:00,
2013-02-27 05:02:00,32.0,28.0,29.67,NE,46,0.0,0.0,85,0.00,,,0.32,,2013-02-27 11:02:00,
2013-02-27 05:12:00,32.0,28.0,29.67,NE,46,0.0,0.0,85,0.00,,,0.32,,2013-02-27 11:12:00,
2013-02-27 05:22:00,32.0,28.0,29.68,NE,46,0.0,0.0,85,0.00,,,0.32,,2013-02-27 11:22:00,
2013-02-27 05:32:00,32.0,28.0,29.69,NE,46,0.0,0.0,85,0.00,,,0.32,,2013-02-27 11:32:00,
2013-02-27 05:41:00,32.0,28.0,29.69,NE,46,0.0,0.0,85,0.00,,,0.32,,2013-02-27 11:41:00,
2013-02-27 05:52:00,32.0,28.0,29.69,NE,46,0.0,0.0,85,0.00,,,0.32,,2013-02-27 11:52:00,
2013-02-27 06:02:00,32.0,28.0,29.69,NE,46,0.0,0.0,85,0.00,,,0.32,,2013-02-27 12:02:00,
2013-02-27 06:12:00,32.0,28.0,29.69,NE,46,0.0,0.0,85,0.00,,,0.32,,2013-02-27 12:12:00,
2013-02-27 06:22:00,32.0,28.0,29.70,NE,46,0.0,0.0,85,0.00,,,0.32,,2013-02-27 12:22:00,
2013-02-27 06:32:00,32.0,28.0,29.70,NE,46,0.0,0.0,85,0.00,,,0.32,,2013-02-27 12:32:00,
2013-02-27 06:42:00,32.0,28.0,29.70,NE,46,0.0,0.0,85,0.00,,,0.32,,2013-02-27 12:42:00,
2013-02-27 06:52:00,32.0,28.0,29.70,NE,46,0.0,0.0,85,0.00,,,0.32,,2013-02-27 12:52:00,
2013-02-27 07:02:00,32.0,28.0,29.70,NE,46,0.0,0.0,85,0.00,,,0.32,,2013-02-27 13:02:00,
2013-02-27 07:11:00,32.0,28.0,29.70,NE,46,0.0,0.0,85,0.00,,,0.32,,2013-02-27 13:11:00,
2013-02-27 07:22:00,32.0,28.0,29.70,NE,46,0.0,0.0,85,0.00,,,0.32,,2013-02-27 13:22:00,
2013-02-27 07:32:00,32.0,29.0,29.70,East,90,0.0,0.0,87,0.00,,,0.32,,2013-02-27 13:32:00,
2013-02-27 07:42:00,32.0,29.0,29.70,East,90,0.0,0.0,87,0.00,,,0.32,,2013-02-27 13:42:00,
2013-02-27 07:52:00,33.0,30.0,29.71,East,90,0.0,0.0,88,0.00,,,0.32,,2013-02-27 13:52:00,
2013-02-27 08:02:00,33.0,30.0,29.72,East,90,0.0,0.0,88,0.02,,,0.34,,2013-02-27 14:02:00,
2013-02-27 08:12:00,33.0,30.0,29.72,East,90,0.0,0.0,88,0.02,,,0.34,,2013-02-27 14:12:00,
2013-02-27 08:21:00,33.0,30.0,29.72,East,90,0.0,0.0,88,0.02,,,0.34,,2013-02-27 14:21:00,
2013-02-27 08:32:00,33.0,30.0,29.72,East,91,0.0,0.0,88,0.02,,,0.34,,2013-02-27 14:32:00,
2013-02-27 08:42:00,33.0,30.0,29.72,East,91,0.0,0.0,88,0.02,,,0.34,,2013-02-27 14:42:00,
2013-02-27 08:52:00,33.0,30.0,29.73,East,91,0.0,0.0,88,0.02,,,0.34,,2013-02-27 14:52:00,
2013-02-27 09:02:00,33.0,30.0,29.73,East,91,0.0,0.0,88,0.00,,,0.34,,2013-02-27 15:02:00,
2013-02-27 09:12:00,33.0,30.0,29.73,East,91,0.0,0.0,88,0.00,,,0.34,,2013-02-27 15:12:00,
2013-02-27 09:22:00,33.0,30.0,29.73,East,91,0.0,0.0,88,0.00,,,0.32,,2013-02-27 15:22:00,
2013-02-27 09:32:00,33.0,30.0,29.73,East,91,0.0,0.0,88,0.00,,,0.32,,2013-02-27 15:32:00,
2013-02-27 09:42:00,33.0,30.0,29.73,East,91,0.0,0.0,88,0.00,,,0.32,,2013-02-27 15:42:00,
2013-02-27 09:52:00,33.0,30.0,29.73,SW,225,0.0,0.0,88,0.00,,,0.32,,2013-02-27 15:52:00,
2013-02-27 10:02:00,33.0,30.0,29.73,SW,226,0.0,0.0,88,0.00,,,0.32,,2013-02-27 16:02:00,
2013-02-27 10:12:00,33.0,30.0,29.73,SW,226,0.0,0.0,88,0.00,,,0.32,,2013-02-27 16:12:00,
2013-02-27 10:22:00,35.0,32.0,29.73,SW,225,2.0,5.0,87,0.06,,,0.38,,2013-02-27 16:22:00,
2013-02-27 10:32:00,35.0,31.0,29.73,SW,225,1.0,3.0,86,0.08,,,0.38,,2013-02-27 16:32:00,
2013-02-27 10:42:00,35.0,31.0,29.73,SW,225,1.0,3.0,86,0.08,,,0.38,,2013-02-27 16:42:00,
2013-02-27 10:52:00,35.0,31.0,29.73,SW,225,2.0,3.0,85,0.08,,,0.34,,2013-02-27 16:52:00,
2013-02-27 11:01:00,35.0,31.0,29.73,SW,228,1.0,6.0,84,0.10,,,0.32,,2013-02-27 17:01:00,
2013-02-27 11:11:00,35.0,31.0,29.73,SW,228,1.0,6.0,84,0.10,,,0.32,,2013-02-27 17:11:00,
2013-02-27 11:21:00,36.0,32.0,29.73,SW,225,0.0,3.0,84,0.06,,,0.30,,2013-02-27 17:21:00,
2013-02-27 11:32:00,36.0,31.0,29.73,SW,225,0.0,3.0,83,0.04,,,0.30,,2013-02-27 17:32:00,
2013-02-27 11:42:00,36.0,31.0,29.73,SW,225,0.0,3.0,83,0.04,,,0.30,,2013-02-27 17:42:00,
2013-02-27 11:52:00,37.0,32.0,29.73,SSW,202,0.0,0.0,82,0.06,,,0.26,,2013-02-27 17:52:00,
2013-02-27 12:01:00,37.0,32.0,29.73,WSW,245,1.0,1.0,81,0.04,,,0.24,,2013-02-27 18:01:00,
2013-02-27 12:11:00,37.0,32.0,29.73,WSW,245,1.0,1.0,81,0.04,,,0.24,,2013-02-27 18:11:00,
2013-02-27 12:22:00,36.0,30.0,29.73,SW,225,4.0,8.0,80,0.04,,,0.24,,2013-02-27 18:22:00,
2013-02-27 12:32:00,36.0,30.0,29.73,WSW,248,0.0,0.0,79,0.06,,,0.26,,2013-02-27 18:32:00,
2013-02-27 12:42:00,36.0,30.0,29.73,WSW,248,0.0,0.0,79,0.06,,,0.26,,2013-02-27 18:42:00,
2013-02-27 12:52:00,36.0,30.0,29.73,WNW,292,0.0,3.0,79,0.04,,,0.26,,2013-02-27 18:52:00,
2013-02-27 13:01:00,36.0,30.0,29.73,WSW,248,1.0,6.0,79,0.06,,,0.28,,2013-02-27 19:01:00,
2013-02-27 13:12:00,36.0,30.0,29.73,WSW,248,1.0,6.0,79,0.06,,,0.28,,2013-02-27 19:12:00,
2013-02-27 13:21:00,35.0,29.0,29.73,West,270,0.0,6.0,78,0.04,,,0.28,,2013-02-27 19:21:00,
2013-02-27 13:32:00,35.0,29.0,29.73,West,270,0.0,0.0,78,0.02,,,0.28,,2013-02-27 19:32:00,
2013-02-27 13:42:00,35.0,29.0,29.73,West,270,0.0,0.0,78,0.02,,,0.28,,2013-02-27 19:42:00,
2013-02-27 13:52:00,34.0,28.0,29.74,WSW,248,0.0,0.0,79,0.04,,,0.28,,2013-02-27 19:52:00,
2013-02-27 14:01:00,33.0,28.0,29.74,WSW,248,0.0,0.0,80,0.02,,,0.28,,2013-02-27 20:01:00,
2013-02-27 14:11:00,33.0,28.0,29.74,WSW,248,0.0,0.0,80,0.02,,,0.28,,2013-02-27 20:11:00,
2013-02-27 14:21:00,33.0,28.0,29.74,SW,225,0.0,0.0,81,0.02,,,0.26,,2013-02-27 20:21:00,
2013-02-27 14:32:00,33.0,28.0,29.74,SW,225,0.0,0.0,81,0.02,,,0.26,,2013-02-27 20:32:00,
2013-02-27 14:42:00,33.0,28.0,29.74,SW,225,0.0,0.0,81,0.02,,,0.26,,2013-02-27 20:42:00,
2013-02-27 14:52:00,33.0,28.0,29.74,SW,215,0.0,0.0,82,0.02,,,0.26,,2013-02-27 20:52:00,
2013-02-27 15:02:00,33.0,28.0,29.74,SW,225,0.0,0.0,82,0.02,,,0.26,,2013-02-27 21:02:00,
2013-02-27 15:11:00,33.0,28.0,29.74,SW,225,0.0,0.0,82,0.02,,,0.26,,2013-02-27 21:11:00,
2013-02-27 15:21:00,33.0,28.0,29.75,SW,225,1.0,2.0,83,0.02,,,0.26,,2013-02-27 21:21:00,
2013-02-27 15:31:00,33.0,28.0,29.75,SW,225,0.0,0.0,83,0.02,,,0.26,,2013-02-27 21:31:00,
2013-02-27 15:42:00,33.0,28.0,29.75,SW,225,0.0,0.0,83,0.02,,,0.26,,2013-02-27 21:42:00,
2013-02-27 15:52:00,33.0,28.0,29.75,SW,225,0.0,0.0,83,0.00,,,0.26,,2013-02-27 21:52:00,
2013-02-27 16:01:00,33.0,29.0,29.76,SW,225,0.0,0.0,84,0.00,,,0.26,,2013-02-27 22:01:00,
2013-02-27 16:11:00,33.0,29.0,29.76,SW,225,0.0,0.0,84,0.00,,,0.26,,2013-02-27 22:11:00,
2013-02-27 16:21:00,32.0,28.0,29.77,SW,225,0.0,0.0,84,0.00,,,0.26,,2013-02-27 22:21:00,
2013-02-27 16:31:00,32.0,28.0,29.77,WSW,248,0.0,0.0,84,0.00,,,0.26,,2013-02-27 22:31:00,
2013-02-27 16:41:00,32.0,28.0,29.77,WSW,248,0.0,0.0,84,0.00,,,0.26,,2013-02-27 22:41:00,
2013-02-27 16:52:00,32.0,28.0,29.77,SSW,202,0.0,0.0,84,0.00,,,0.26,,2013-02-27 22:52:00,
2013-02-27 17:01:00,32.0,28.0,29.77,SW,225,0.0,0.0,85,0.00,,,0.26,,2013-02-27 23:01:00,
2013-02-27 17:11:00,32.0,28.0,29.77,SW,225,0.0,0.0,85,0.00,,,0.26,,2013-02-27 23:11:00,
2013-02-27 17:21:00,32.0,28.0,29.77,SW,225,0.0,0.0,85,0.00,,,0.26,,2013-02-27 23:21:00,
2013-02-27 17:32:00,32.0,28.0,29.78,SW,225,0.0,0.0,85,0.00,,,0.26,,2013-02-27 23:32:00,
2013-02-27 17:42:00,32.0,28.0,29.78,SW,225,0.0,0.0,85,0.00,,,0.26,,2013-02-27 23:42:00,
2013-02-27 17:53:00,32.0,28.0,29.79,SW,225,0.0,0.0,85,0.00,,,0.26,,2013-02-27 23:53:00,
2013-02-27 18:01:00,32.0,28.0,29.79,SW,225,0.0,0.0,85,0.00,,,0.26,,2013-02-28 00:01:00,
2013-02-27 18:11:00,32.0,28.0,29.79,SW,225,0.0,0.0,85,0.00,,,0.26,,2013-02-28 00:11:00,
2013-02-27 18:21:00,32.0,28.0,29.79,SW,225,0.0,0.0,86,0.00,,,0.26,,2013-02-28 00:21:00,
2013-02-27 18:32:00,32.0,28.0,29.80,SW,225,0.0,0.0,86,0.00,,,0.26,,2013-02-28 00:32:00,
2013-02-27 18:42:00,32.0,28.0,29.80,SW,225,0.0,0.0,86,0.00,,,0.26,,2013-02-28 00:42:00,
2013-02-27 18:52:00,32.0,28.0,29.80,SW,225,0.0,0.0,86,0.00,,,0.26,,2013-02-28 00:52:00,
2013-02-27 19:01:00,32.0,28.0,29.80,SW,225,0.0,0.0,86,0.00,,,0.26,,2013-02-28 01:01:00,
2013-02-27 19:11:00,32.0,28.0,29.80,SW,225,0.0,0.0,86,0.00,,,0.26,,2013-02-28 01:11:00,
2013-02-27 19:21:00,32.0,28.0,29.80,SW,225,0.0,0.0,86,0.00,,,0.26,,2013-02-28 01:21:00,
2013-02-27 19:31:00,32.0,28.0,29.80,SW,225,0.0,0.0,86,0.00,,,0.26,,2013-02-28 01:31:00,
2013-02-27 19:41:00,32.0,28.0,29.80,SW,225,0.0,0.0,86,0.00,,,0.26,,2013-02-28 01:41:00,
2013-02-27 19:52:00,32.0,28.0,29.80,SW,225,0.0,0.0,86,0.00,,,0.26,,2013-02-28 01:52:00,
2013-02-27 20:01:00,32.0,28.0,29.81,SW,225,0.0,0.0,86,0.00,,,0.26,,2013-02-28 02:01:00,
2013-02-27 20:11:00,32.0,28.0,29.81,SW,225,0.0,0.0,86,0.00,,,0.26,,2013-02-28 02:11:00,
2013-02-27 20:22:00,32.0,29.0,29.81,SW,225,0.0,0.0,87,0.00,,,0.26,,2013-02-28 02:22:00,
2013-02-27 20:31:00,32.0,29.0,29.81,SW,225,0.0,0.0,87,0.00,,,0.26,,2013-02-28 02:31:00,
2013-02-27 20:41:00,32.0,29.0,29.81,SW,225,0.0,0.0,87,0.00,,,0.26,,2013-02-28 02:41:00,
2013-02-27 20:52:00,32.0,29.0,29.81,SW,225,0.0,0.0,87,0.00,,,0.26,,2013-02-28 02:52:00,
2013-02-27 21:01:00,32.0,29.0,29.81,SW,225,0.0,0.0,87,0.00,,,0.26,,2013-02-28 03:01:00,
2013-02-27 21:11:00,32.0,29.0,29.81,SW,225,0.0,0.0,87,0.00,,,0.26,,2013-02-28 03:11:00,
2013-02-27 21:21:00,32.0,29.0,29.81,SW,225,0.0,0.0,87,0.00,,,0.26,,2013-02-28 03:21:00,
2013-02-27 21:31:00,32.0,29.0,29.81,SW,225,0.0,0.0,87,0.00,,,0.26,,2013-02-28 03:31:00,
2013-02-27 21:41:00,32.0,29.0,29.81,SW,225,0.0,0.0,87,0.00,,,0.26,,2013-02-28 03:41:00,
2013-02-27 21:52:00,32.0,29.0,29.82,SW,225,0.0,0.0,87,0.00,,,0.26,,2013-02-28 03:52:00,
2013-02-27 22:01:00,32.0,29.0,29.82,SW,225,0.0,0.0,87,0.00,,,0.26,,2013-02-28 04:01:00,
2013-02-27 22:11:00,32.0,29.0,29.82,SW,225,0.0,0.0,87,0.00,,,0.26,,2013-02-28 04:11:00,
2013-02-27 22:21:00,32.0,29.0,29.82,SW,225,0.0,0.0,87,0.00,,,0.26,,2013-02-28 04:21:00,
2013-02-27 22:31:00,32.0,29.0,29.82,WNW,292,0.0,0.0,88,0.00,,,0.26,,2013-02-28 04:31:00,
2013-02-27 22:42:00,32.0,29.0,29.82,WNW,292,0.0,0.0,88,0.00,,,0.26,,2013-02-28 04:42:00,
2013-02-27 22:52:00,32.0,29.0,29.82,WNW,292,0.0,0.0,88,0.00,,,0.26,,2013-02-28 04:52:00,
2013-02-27 23:01:00,32.0,29.0,29.82,WNW,292,0.0,0.0,88,0.00,,,0.26,,2013-02-28 05:01:00,
2013-02-27 23:11:00,32.0,29.0,29.82,WNW,292,0.0,0.0,88,0.00,,,0.26,,2013-02-28 05:11:00,
2013-02-27 23:22:00,32.0,29.0,29.82,NW,315,0.0,0.0,88,0.00,,,0.26,,2013-02-28 05:22:00,
2013-02-27 23:31:00,32.0,29.0,29.82,NW,315,0.0,0.0,88,0.00,,,0.26,,2013-02-28 05:31:00,
2013-02-27 23:42:00,32.0,29.0,29.82,NW,315,0.0,0.0,88,0.00,,,0.26,,2013-02-28 05:42:00,
2013-02-27 23:52:00,32.0,29.0,29.83,West,270,0.0,0.0,88,0.00,,,0.26,,2013-02-28 05:52:00,